Time;durP1;ratioP1;P1;durP2;ratioP2;P2;SDS_P1;SDS_P2;PMS_P1;PMS_P2;Temp;Humidity;BMP_temperature;BMP_pressure;BME280_temperature;BME280_humidity;BME280_pressure;Samples;Min_cycle;Max_cycle;Signal;HPM_P1;HPM_P2
2024/01/28 00:00:23;;;;;;;0.50;0.50;;;;;;;7.04;44.12;102524.44;6244977;23;20821;-91
2024/01/28 00:02:50;;;;;;;0.25;0.25;;;;;;;6.94;44.17;102532.13;6245935;23;20844;-90
2024/01/28 00:05:16;;;;;;;0.30;0.30;;;;;;;6.81;44.73;102518.06;6245034;23;20388;-91
2024/01/28 00:07:42;;;;;;;0.40;0.38;;;;;;;6.87;44.42;102521.13;6243626;23;20399;-90
2024/01/28 00:10:08;;;;;;;0.40;0.30;;;;;;;6.84;44.30;102517.84;6244218;23;20797;-90
2024/01/28 00:12:34;;;;;;;0.17;0.17;;;;;;;6.83;44.32;102529.34;6241114;23;20356;-89
2024/01/28 00:15:00;;;;;;;0.40;0.30;;;;;;;6.84;44.45;102536.31;6242172;23;20440;-90
2024/01/28 00:17:28;;;;;;;1.60;1.50;;;;;;;6.62;44.52;102529.78;6240724;23;20364;-87
2024/01/28 00:19:56;;;;;;;0.52;0.52;;;;;;;6.56;44.66;102530.19;6242726;23;20376;-90
2024/01/28 00:22:21;;;;;;;0.40;0.40;;;;;;;6.60;44.88;102539.59;6243403;23;20383;-89
2024/01/28 00:24:52;;;;;;;0.38;0.30;;;;;;;6.55;44.91;102531.13;6243350;23;20779;-88
2024/01/28 00:27:18;;;;;;;0.68;0.40;;;;;;;6.60;44.89;102541.38;6242624;23;20369;-89
2024/01/28 00:29:48;;;;;;;0.60;0.60;;;;;;;6.51;44.91;102529.66;6243097;23;20726;-90
2024/01/28 00:32:14;;;;;;;0.30;0.30;;;;;;;6.53;44.61;102530.38;6242654;23;20345;-90
2024/01/28 00:34:41;;;;;;;1.95;1.40;;;;;;;6.48;44.92;102533.34;6241854;23;20627;-89
2024/01/28 00:37:06;;;;;;;0.20;0.20;;;;;;;6.42;44.97;102541.63;6241645;23;20354;-89
2024/01/28 00:39:32;;;;;;;0.20;0.20;;;;;;;6.41;45.09;102532.03;6242707;23;20361;-89
2024/01/28 00:42:02;;;;;;;0.40;0.40;;;;;;;6.44;45.25;102545.00;6242664;23;20813;-89
2024/01/28 00:44:27;;;;;;;0.20;0.20;;;;;;;6.20;45.25;102547.41;6242398;23;20360;-89
2024/01/28 00:46:55;;;;;;;0.30;0.30;;;;;;;6.20;45.29;102549.19;6241776;23;20444;-90
2024/01/28 00:49:23;;;;;;;0.25;0.25;;;;;;;6.11;45.53;102534.81;6242378;23;20357;-89
2024/01/28 00:51:49;;;;;;;0.30;0.30;;;;;;;6.10;45.55;102543.63;6242739;23;20415;-91
2024/01/28 00:54:15;;;;;;;0.30;0.20;;;;;;;5.97;45.67;102540.94;6243281;23;20353;-89
2024/01/28 00:56:43;;;;;;;0.40;0.30;;;;;;;5.92;45.90;102524.53;6243366;23;20353;-90
2024/01/28 00:59:09;;;;;;;0.50;0.50;;;;;;;5.84;45.98;102545.22;6242075;23;20353;-92
2024/01/28 01:01:35;;;;;;;0.30;0.30;;;;;;;5.72;46.74;102541.56;6243416;23;20418;-89
2024/01/28 01:04:00;;;;;;;0.20;0.20;;;;;;;5.71;46.66;102531.97;6244161;23;20361;-90
2024/01/28 01:06:26;;;;;;;0.20;0.20;;;;;;;5.71;46.60;102526.72;6243375;23;21160;-89
2024/01/28 01:08:51;;;;;;;0.20;0.20;;;;;;;5.68;46.55;102525.09;6244081;23;20450;-87
2024/01/28 01:11:18;;;;;;;0.30;0.30;;;;;;;5.63;46.66;102542.94;6244911;23;20367;-88
2024/01/28 01:13:44;;;;;;;0.20;0.20;;;;;;;5.67;46.80;102541.84;6244324;23;20468;-88
2024/01/28 01:16:12;;;;;;;0.30;0.30;;;;;;;5.44;47.22;102532.69;6244635;23;20388;-89
2024/01/28 01:18:37;;;;;;;0.20;0.20;;;;;;;5.29;48.00;102544.94;6242927;23;20366;-90
2024/01/28 01:21:03;;;;;;;0.20;0.20;;;;;;;5.25;47.86;102538.19;6242728;23;20353;-89
2024/01/28 01:23:29;;;;;;;0.35;0.35;;;;;;;5.40;47.71;102554.00;6248442;23;20368;-89
2024/01/28 01:25:55;;;;;;;0.20;0.20;;;;;;;5.45;47.87;102544.06;6257554;23;20483;-87
2024/01/28 01:28:21;;;;;;;0.90;0.40;;;;;;;5.51;47.48;102556.84;6260968;23;20456;-88
2024/01/28 01:30:47;;;;;;;0.50;0.40;;;;;;;5.52;47.60;102542.75;6242848;23;20365;-89
2024/01/28 01:33:12;;;;;;;0.10;0.10;;;;;;;5.66;47.31;102552.47;6243356;23;20353;-89
2024/01/28 01:35:38;;;;;;;0.10;0.10;;;;;;;5.68;47.34;102540.06;6245899;23;20363;-89
2024/01/28 01:38:04;;;;;;;0.60;0.60;;;;;;;5.87;46.72;102559.06;6244401;23;20821;-89
2024/01/28 01:40:32;;;;;;;0.50;0.50;;;;;;;5.76;46.95;102548.31;6243425;23;20357;-91
2024/01/28 01:42:58;;;;;;;0.70;0.70;;;;;;;5.67;47.04;102554.13;6246486;23;20372;-89
2024/01/28 01:45:24;;;;;;;0.50;0.50;;;;;;;5.61;47.21;102550.09;6253513;23;20357;-89
2024/01/28 01:47:50;;;;;;;0.65;0.45;;;;;;;5.70;47.14;102552.16;6262997;23;20369;-87
2024/01/28 01:50:16;;;;;;;0.20;0.20;;;;;;;5.59;47.54;102556.41;6251721;23;20452;-90
2024/01/28 01:52:43;;;;;;;0.30;0.30;;;;;;;5.64;47.43;102549.09;6247485;23;20447;-89
2024/01/28 01:55:12;;;;;;;0.20;0.20;;;;;;;5.59;47.46;102551.13;6250668;23;20367;-91
2024/01/28 01:57:43;;;;;;;0.20;0.20;;;;;;;5.62;47.36;102543.91;6254030;23;20349;-90
2024/01/28 02:00:14;;;;;;;0.20;0.20;;;;;;;5.73;47.37;102543.25;6250038;23;20360;-89
2024/01/28 02:02:46;;;;;;;0.90;0.80;;;;;;;5.77;47.04;102554.44;6258714;23;20441;-90
2024/01/28 02:05:12;;;;;;;0.20;0.20;;;;;;;5.73;46.99;102553.78;6267150;23;20373;-88
2024/01/28 02:07:38;;;;;;;0.40;0.40;;;;;;;5.67;47.51;102546.25;6265667;23;20434;-89
2024/01/28 02:10:05;;;;;;;0.20;0.20;;;;;;;5.68;47.50;102543.53;6264152;22;20338;-87
2024/01/28 02:12:31;;;;;;;0.30;0.20;;;;;;;5.68;47.13;102547.94;6260387;22;20824;-88
2024/01/28 02:15:11;;;;;;;0.40;0.40;;;;;;;5.70;47.16;102546.91;6244268;23;20396;-87
2024/01/28 02:17:37;;;;;;;0.40;0.40;;;;;;;5.67;47.26;102535.72;6243646;22;20345;-87
2024/01/28 02:20:06;;;;;;;0.20;0.20;;;;;;;5.64;47.51;102538.56;6241840;23;20759;-87
2024/01/28 02:22:32;;;;;;;0.90;0.40;;;;;;;5.62;47.23;102550.94;6241528;23;20350;-88
2024/01/28 02:24:58;;;;;;;0.10;0.10;;;;;;;5.78;47.55;102556.13;6242134;23;20361;-88
2024/01/28 02:27:24;;;;;;;0.30;0.25;;;;;;;5.80;47.37;102549.84;6241522;23;20392;-87
2024/01/28 02:29:49;;;;;;;0.20;0.20;;;;;;;5.82;46.87;102562.91;6240817;23;20864;-87
2024/01/28 02:32:17;;;;;;;0.25;0.25;;;;;;;5.81;47.32;102569.94;6242702;23;20408;-86
2024/01/28 02:34:43;;;;;;;0.20;0.20;;;;;;;5.88;46.99;102571.25;6243325;23;20354;-86
2024/01/28 02:37:10;;;;;;;0.30;0.30;;;;;;;5.87;47.27;102560.81;6243580;23;20821;-87
2024/01/28 02:39:36;;;;;;;0.22;0.22;;;;;;;5.81;47.56;102563.84;6241658;23;20422;-87
2024/01/28 02:42:02;;;;;;;0.20;0.20;;;;;;;5.80;47.52;102572.66;6241912;23;20829;-87
2024/01/28 02:44:28;;;;;;;0.40;0.30;;;;;;;5.73;47.44;102567.78;6243768;23;20481;-88
2024/01/28 02:46:55;;;;;;;0.20;0.20;;;;;;;5.71;47.40;102571.44;6244813;23;20357;-90
2024/01/28 02:49:23;;;;;;;0.20;0.20;;;;;;;5.82;47.30;102578.69;6244380;22;20365;-89
2024/01/28 02:51:52;;;;;;;0.28;0.20;;;;;;;5.81;47.85;102574.38;6242553;23;20728;-89
2024/01/28 02:54:19;;;;;;;0.20;0.20;;;;;;;5.84;47.30;102579.44;6243925;23;20751;-89
2024/01/28 02:56:45;;;;;;;0.20;0.20;;;;;;;5.73;47.45;102574.84;6243537;23;20384;-89
2024/01/28 02:59:10;;;;;;;0.70;0.50;;;;;;;5.60;47.84;102572.09;6245240;23;20353;-88
2024/01/28 03:01:49;;;;;;;0.30;0.30;;;;;;;5.50;48.01;102576.19;6246705;23;20397;-88
2024/01/28 03:04:18;;;;;;;0.50;0.50;;;;;;;5.54;47.60;102580.34;6246209;23;20350;-88
2024/01/28 03:06:44;;;;;;;0.50;0.50;;;;;;;5.55;47.59;102576.78;6221877;23;20364;-87
2024/01/28 03:09:09;;;;;;;0.30;0.30;;;;;;;5.58;47.81;102581.84;6223890;23;20369;-90
2024/01/28 03:11:35;;;;;;;0.20;0.20;;;;;;;5.64;47.48;102588.53;6242271;23;20421;-90
2024/01/28 03:14:01;;;;;;;0.25;0.25;;;;;;;5.59;47.57;102587.97;6241581;23;20352;-88
2024/01/28 03:16:27;;;;;;;0.30;0.30;;;;;;;5.52;47.49;102579.59;6230650;23;20440;-88
2024/01/28 03:18:53;;;;;;;0.20;0.20;;;;;;;5.33;48.48;102577.19;6243655;22;20389;-90
2024/01/28 03:21:19;;;;;;;0.30;0.20;;;;;;;5.38;47.80;102579.56;6246752;22;20384;-91
2024/01/28 03:23:46;;;;;;;0.20;0.20;;;;;;;5.24;47.95;102577.72;6246358;22;20411;-89
2024/01/28 03:26:12;;;;;;;0.20;0.20;;;;;;;5.25;47.80;102576.78;6231319;23;20349;-88
2024/01/28 03:28:38;;;;;;;0.30;0.30;;;;;;;5.31;48.00;102590.44;6221876;23;20377;-88
2024/01/28 03:31:03;;;;;;;0.20;0.20;;;;;;;5.36;48.16;102593.63;6232133;23;20420;-86
2024/01/28 03:33:29;;;;;;;0.20;0.20;;;;;;;5.38;47.69;102588.28;6235285;23;20353;-85
2024/01/28 03:35:56;;;;;;;0.20;0.20;;;;;;;5.35;47.49;102593.75;6232358;23;20701;-87
2024/01/28 03:38:22;;;;;;;0.20;0.20;;;;;;;5.22;48.03;102595.38;6215986;23;20441;-88
2024/01/28 03:40:47;;;;;;;0.38;0.30;;;;;;;5.13;47.63;102589.72;6216082;23;20373;-88
2024/01/28 03:43:13;;;;;;;0.60;0.30;;;;;;;5.17;47.77;102593.84;6216694;23;20387;-89
2024/01/28 03:45:39;;;;;;;0.20;0.20;;;;;;;5.14;47.74;102590.56;6216404;23;20372;-89
2024/01/28 03:48:05;;;;;;;0.90;0.60;;;;;;;5.04;48.27;102594.63;6217627;23;20403;-89
2024/01/28 03:50:31;;;;;;;0.20;0.20;;;;;;;5.22;48.43;102600.63;6223154;23;20360;-89
2024/01/28 03:52:56;;;;;;;0.30;0.30;;;;;;;5.44;47.74;102602.84;6229494;23;20350;-89
2024/01/28 03:55:22;;;;;;;0.50;0.50;;;;;;;5.41;48.01;102603.06;6242892;23;20361;-87
2024/01/28 03:57:48;;;;;;;0.60;0.40;;;;;;;5.39;47.48;102602.28;6224776;23;20353;-88
2024/01/28 04:00:14;;;;;;;0.43;0.43;;;;;;;5.43;47.83;102609.91;6218071;23;20350;-89
2024/01/28 04:02:41;;;;;;;0.20;0.20;;;;;;;5.28;47.69;102598.50;6217685;23;20361;-88
2024/01/28 04:05:07;;;;;;;0.30;0.30;;;;;;;5.24;47.74;102599.63;6224625;23;20443;-90
2024/01/28 04:07:35;;;;;;;0.28;0.28;;;;;;;5.20;48.30;102605.13;6243753;23;20379;-88
2024/01/28 04:10:01;;;;;;;0.22;0.22;;;;;;;5.17;48.32;102601.75;6243814;23;20353;-89
2024/01/28 04:12:26;;;;;;;0.10;0.10;;;;;;;5.19;48.39;102608.72;6243617;23;20388;-88
2024/01/28 04:14:52;;;;;;;0.20;0.20;;;;;;;5.12;48.16;102609.03;6244407;23;20379;-89
2024/01/28 04:17:18;;;;;;;0.20;0.20;;;;;;;5.17;47.84;102612.25;6244354;23;20416;-89
2024/01/28 04:19:43;;;;;;;0.30;0.20;;;;;;;5.21;48.29;102618.19;6242514;23;20392;-90
2024/01/28 04:22:13;;;;;;;0.10;0.10;;;;;;;5.34;47.92;102620.97;6242219;23;20376;-90
2024/01/28 04:24:38;;;;;;;0.20;0.20;;;;;;;5.22;48.09;102622.53;6242739;23;20361;-89
2024/01/28 04:27:04;;;;;;;0.77;0.50;;;;;;;5.10;48.08;102610.09;6242557;23;20456;-88
2024/01/28 04:29:30;;;;;;;1.27;0.50;;;;;;;5.17;48.15;102627.19;6240359;23;20349;-89
2024/01/28 04:31:56;;;;;;;0.30;0.30;;;;;;;5.11;48.28;102628.41;6241433;23;20710;-89
2024/01/28 04:34:22;;;;;;;0.20;0.20;;;;;;;5.04;48.06;102628.81;6243126;22;20361;-88
2024/01/28 04:36:48;;;;;;;0.10;0.10;;;;;;;5.20;48.18;102637.53;6241486;23;20357;-88
2024/01/28 04:39:15;;;;;;;0.30;0.30;;;;;;;5.27;47.86;102628.34;6241440;23;20393;-89
2024/01/28 04:41:41;;;;;;;0.30;0.30;;;;;;;5.27;47.96;102635.41;6240848;23;20365;-90
2024/01/28 04:44:07;;;;;;;0.10;0.10;;;;;;;5.26;47.65;102642.44;6242162;23;20388;-89
2024/01/28 04:46:33;;;;;;;0.20;0.20;;;;;;;5.16;48.11;102639.47;6245017;22;20372;-89
2024/01/28 04:49:03;;;;;;;0.80;0.80;;;;;;;5.18;47.96;102647.28;6242928;23;20369;-89
2024/01/28 04:51:30;;;;;;;0.10;0.10;;;;;;;5.26;47.59;102647.69;6242657;23;20353;-88
2024/01/28 04:53:57;;;;;;;0.20;0.20;;;;;;;5.21;47.73;102646.28;6242122;23;20365;-88
2024/01/28 04:56:23;;;;;;;0.50;0.50;;;;;;;5.18;47.55;102647.28;6241595;23;20361;-88
2024/01/28 04:58:49;;;;;;;0.20;0.20;;;;;;;5.15;47.59;102650.94;6242877;23;20463;-89
2024/01/28 05:01:35;;;;;;;0.10;0.10;;;;;;;5.11;47.85;102649.44;6242754;23;20357;-89
2024/01/28 05:04:01;;;;;;;0.80;0.50;;;;;;;5.17;47.91;102653.50;6122189;23;20899;-88
2024/01/28 05:06:34;;;;;;;0.17;0.17;;;;;;;5.30;47.55;102648.38;6224659;23;20373;-90
2024/01/28 05:09:10;;;;;;;0.10;0.10;;;;;;;5.29;47.64;102654.56;6219222;23;20378;-89
2024/01/28 05:11:36;;;;;;;0.10;0.10;;;;;;;5.16;47.89;102652.63;6243402;23;20361;-91
2024/01/28 05:14:02;;;;;;;0.23;0.23;;;;;;;5.31;48.14;102655.31;6246957;22;20454;-92
2024/01/28 05:18:58;;;;;;;0.30;0.30;;;;;;;5.29;47.55;102659.81;6218839;23;20391;-90
2024/01/28 05:21:23;;;;;;;0.30;0.30;;;;;;;5.45;47.88;102663.25;6217158;23;20386;-90
2024/01/28 05:23:52;;;;;;;0.40;0.30;;;;;;;5.55;47.40;102659.16;6215749;23;20445;-90
2024/01/28 05:26:18;;;;;;;1.10;0.88;;;;;;;5.57;47.51;102669.59;6215128;23;20770;-90
2024/01/28 05:28:48;;;;;;;0.30;0.30;;;;;;;5.48;47.67;102673.63;6210325;23;20672;-88
2024/01/28 05:31:16;;;;;;;0.88;0.70;;;;;;;5.39;47.68;102678.56;6209044;23;20359;-89
2024/01/28 05:33:44;;;;;;;2.50;0.80;;;;;;;5.30;47.65;102680.78;6212164;23;20355;-88
2024/01/28 05:36:15;;;;;;;0.20;0.20;;;;;;;5.27;47.57;102680.94;6223989;23;20357;-86
2024/01/28 05:38:44;;;;;;;0.10;0.10;;;;;;;5.29;47.90;102686.94;6222616;23;20437;-90
2024/01/28 05:41:19;;;;;;;0.10;0.10;;;;;;;5.31;47.52;102678.97;6211775;23;20367;-89
2024/01/28 05:43:44;;;;;;;0.30;0.30;;;;;;;5.34;47.29;102684.06;6212381;23;20417;-91
2024/01/28 05:46:13;;;;;;;0.20;0.20;;;;;;;5.20;47.69;102690.09;6213218;23;20413;-90
2024/01/28 05:48:38;;;;;;;0.60;0.50;;;;;;;5.26;47.69;102707.34;6213527;23;20371;-90
2024/01/28 05:51:04;;;;;;;1.00;1.00;;;;;;;5.31;47.41;102695.63;6214792;23;20412;-90
2024/01/28 05:53:33;;;;;;;0.90;0.73;;;;;;;5.31;47.60;102687.75;6194593;23;20412;-89
2024/01/28 05:55:59;;;;;;;0.20;0.20;;;;;;;5.42;47.18;102702.91;6223124;23;20423;-85
2024/01/28 05:58:25;;;;;;;0.20;0.20;;;;;;;5.25;47.59;102695.94;6225487;23;20351;-91
2024/01/28 06:00:51;;;;;;;0.10;0.10;;;;;;;5.32;47.54;102699.94;6214273;23;20355;-89
2024/01/28 06:03:17;;;;;;;0.40;0.40;;;;;;;5.36;47.02;102703.25;6217374;23;20664;-92
2024/01/28 06:05:43;;;;;;;1.40;0.90;;;;;;;5.30;47.11;102701.81;6219231;23;20377;-90
2024/01/28 06:08:08;;;;;;;0.30;0.30;;;;;;;5.29;47.70;102715.03;6215827;23;20456;-89
2024/01/28 06:10:35;;;;;;;0.20;0.20;;;;;;;5.36;47.70;102719.84;6216013;23;20363;-89
2024/01/28 06:13:01;;;;;;;0.32;0.32;;;;;;;5.29;47.47;102726.38;6189602;23;20470;-89
2024/01/28 06:15:29;;;;;;;0.10;0.10;;;;;;;5.29;47.36;102721.13;6215448;23;20730;-87
2024/01/28 06:17:55;;;;;;;0.20;0.20;;;;;;;5.35;47.35;102730.50;6215201;23;20382;-88
2024/01/28 06:20:25;;;;;;;0.40;0.40;;;;;;;5.38;47.30;102725.03;6213204;23;20362;-88
2024/01/28 06:22:51;;;;;;;0.30;0.30;;;;;;;5.39;47.25;102726.75;6214211;23;20359;-89
2024/01/28 06:25:17;;;;;;;0.30;0.30;;;;;;;5.31;47.07;102728.94;6187466;23;20362;-90
2024/01/28 06:27:45;;;;;;;0.27;0.27;;;;;;;5.34;47.27;102729.63;6212006;23;20379;-87
2024/01/28 06:30:14;;;;;;;0.50;0.50;;;;;;;5.44;46.90;102729.09;6211410;23;20484;-89
2024/01/28 06:32:43;;;;;;;0.25;0.25;;;;;;;5.41;47.19;102731.91;6212519;23;20363;-89
2024/01/28 06:35:09;;;;;;;0.20;0.20;;;;;;;5.42;47.21;102723.06;6214261;23;20359;-89
2024/01/28 06:37:39;;;;;;;0.20;0.20;;;;;;;5.48;47.04;102731.47;6213065;23;20421;-89
2024/01/28 06:40:08;;;;;;;0.40;0.40;;;;;;;5.47;47.16;102727.13;6212983;23;20362;-90
2024/01/28 06:42:36;;;;;;;0.60;0.60;;;;;;;5.62;46.90;102735.97;6214263;23;20389;-89
2024/01/28 06:45:07;;;;;;;0.20;0.20;;;;;;;5.63;47.34;102739.44;6213934;23;20359;-87
2024/01/28 06:47:36;;;;;;;0.40;0.40;;;;;;;5.64;47.16;102738.50;6212455;23;20381;-87
2024/01/28 06:50:04;;;;;;;0.43;0.37;;;;;;;5.67;47.03;102744.44;6213861;23;20844;-87
2024/01/28 06:52:30;;;;;;;1.92;0.80;;;;;;;5.67;46.99;102731.28;6212842;23;20422;-86
2024/01/28 06:54:56;;;;;;;0.38;0.35;;;;;;;5.72;47.08;102746.81;6210397;23;20406;-88
2024/01/28 06:57:24;;;;;;;0.40;0.40;;;;;;;5.77;46.94;102752.66;6210501;23;20438;-87
2024/01/28 06:59:53;;;;;;;0.20;0.20;;;;;;;5.74;47.05;102745.78;6210557;23;20757;-88
2024/01/28 07:02:27;;;;;;;0.30;0.30;;;;;;;5.79;46.90;102750.78;6211147;23;20477;-88
2024/01/28 07:04:59;;;;;;;0.22;0.22;;;;;;;5.88;46.79;102744.97;6213342;23;20355;-88
2024/01/28 07:07:25;;;;;;;0.20;0.20;;;;;;;5.97;46.78;102754.16;6213677;23;20702;-88
2024/01/28 07:09:53;;;;;;;0.30;0.30;;;;;;;6.01;46.79;102758.28;6212425;23;20351;-87
2024/01/28 07:12:19;;;;;;;0.20;0.20;;;;;;;6.04;46.77;102762.56;6211432;23;20413;-87
2024/01/28 07:14:44;;;;;;;0.28;0.28;;;;;;;6.11;46.76;102761.25;6211115;23;20362;-87
2024/01/28 07:17:13;;;;;;;0.20;0.20;;;;;;;6.25;46.90;102757.81;6211875;23;20857;-86
2024/01/28 07:19:40;;;;;;;0.30;0.30;;;;;;;6.29;46.54;102757.53;6211992;23;20355;-86
2024/01/28 07:22:06;;;;;;;0.20;0.20;;;;;;;6.43;46.67;102774.31;6211090;23;20351;-87
2024/01/28 07:24:32;;;;;;;0.20;0.20;;;;;;;6.37;46.59;102769.38;6211378;23;20469;-87
2024/01/28 07:26:58;;;;;;;0.53;0.53;;;;;;;6.39;46.79;102768.38;6211721;23;20366;-87
2024/01/28 07:29:24;;;;;;;0.30;0.30;;;;;;;6.51;46.67;102767.59;6213066;23;20413;-87
2024/01/28 07:31:51;;;;;;;0.22;0.22;;;;;;;6.64;46.98;102769.50;6212548;23;20355;-86
2024/01/28 07:34:19;;;;;;;0.10;0.10;;;;;;;6.75;46.86;102771.47;6211555;23;20441;-86
2024/01/28 07:36:47;;;;;;;0.20;0.20;;;;;;;6.85;46.42;102773.47;6212396;23;20359;-88
2024/01/28 07:39:14;;;;;;;0.40;0.40;;;;;;;6.80;46.42;102767.63;6215676;23;20362;-87
2024/01/28 07:41:41;;;;;;;0.40;0.40;;;;;;;6.87;46.58;102774.22;6224148;23;20339;-85
2024/01/28 07:44:08;;;;;;;0.30;0.30;;;;;;;6.89;46.71;102779.41;6219645;23;20355;-89
2024/01/28 07:46:34;;;;;;;0.22;0.22;;;;;;;6.87;46.81;102781.28;6214749;23;20343;-87
2024/01/28 07:48:59;;;;;;;0.40;0.40;;;;;;;6.85;46.69;102789.28;6214850;23;20375;-87
2024/01/28 07:51:25;;;;;;;0.35;0.35;;;;;;;6.80;46.83;102783.44;6214440;23;20357;-86
2024/01/28 07:53:51;;;;;;;0.40;0.40;;;;;;;6.93;46.60;102788.78;6212689;23;20357;-86
2024/01/28 07:56:16;;;;;;;0.35;0.35;;;;;;;7.10;46.38;102798.31;6213670;23;20397;-88
2024/01/28 07:58:42;;;;;;;0.10;0.10;;;;;;;7.27;45.92;102798.13;6214170;23;20351;-86
2024/01/28 08:01:08;;;;;;;0.53;0.53;;;;;;;7.25;45.83;102807.88;6217470;23;20434;-85
2024/01/28 08:03:34;;;;;;;0.10;0.10;;;;;;;7.08;46.30;102792.28;6223334;23;20797;-86
2024/01/28 08:05:59;;;;;;;0.23;0.23;;;;;;;7.24;46.31;102779.00;6216317;23;20370;-88
2024/01/28 08:08:25;;;;;;;0.40;0.40;;;;;;;7.41;45.90;102786.66;6212016;23;20956;-88
2024/01/28 08:10:51;;;;;;;0.20;0.20;;;;;;;7.26;45.87;102792.94;6212163;23;20438;-88
2024/01/28 08:13:19;;;;;;;0.10;0.10;;;;;;;7.31;46.01;102809.31;6187889;23;20387;-88
2024/01/28 08:15:45;;;;;;;0.13;0.13;;;;;;;7.44;45.94;102804.94;6211371;23;20358;-89
2024/01/28 08:18:14;;;;;;;0.55;0.50;;;;;;;7.38;45.84;102797.44;6212605;23;20859;-87
2024/01/28 08:20:40;;;;;;;0.20;0.20;;;;;;;7.44;45.78;102801.47;6214605;23;20742;-87
2024/01/28 08:23:06;;;;;;;0.75;0.75;;;;;;;7.34;45.86;102795.91;6213004;23;20821;-88
2024/01/28 08:25:32;;;;;;;0.20;0.20;;;;;;;7.28;45.64;102802.44;6213836;23;20386;-86
2024/01/28 08:27:58;;;;;;;0.17;0.17;;;;;;;7.41;45.77;102805.13;6210691;23;20738;-89
2024/01/28 08:30:24;;;;;;;0.25;0.25;;;;;;;7.40;45.53;102813.13;6215241;23;20350;-87
2024/01/28 08:32:50;;;;;;;0.10;0.10;;;;;;;7.32;45.77;102820.72;6214872;23;20359;-85
2024/01/28 08:35:17;;;;;;;0.28;0.28;;;;;;;7.42;45.51;102812.13;6211470;23;20370;-90
2024/01/28 08:37:42;;;;;;;2.40;1.95;;;;;;;7.67;45.47;102813.19;6210248;23;20366;-87
2024/01/28 08:40:10;;;;;;;3.60;0.50;;;;;;;7.58;45.34;102825.19;6210511;23;20374;-86
2024/01/28 08:42:35;;;;;;;1.02;0.95;;;;;;;7.75;45.36;102817.97;6209831;23;20497;-86
2024/01/28 08:45:01;;;;;;;0.20;0.20;;;;;;;7.57;45.40;102825.28;6213379;23;20861;-88
2024/01/28 08:47:27;;;;;;;0.30;0.30;;;;;;;7.75;45.24;102833.81;6213675;23;20413;-90
2024/01/28 08:49:53;;;;;;;0.10;0.10;;;;;;;7.82;45.23;102829.81;6213804;23;20390;-89
2024/01/28 08:52:21;;;;;;;0.30;0.30;;;;;;;7.75;45.50;102837.28;6213911;23;20346;-88
2024/01/28 08:54:48;;;;;;;0.70;0.60;;;;;;;7.82;44.87;102832.47;6213843;23;20347;-88
2024/01/28 08:57:14;;;;;;;0.40;0.40;;;;;;;7.80;45.11;102839.63;6211895;23;20362;-89
2024/01/28 08:59:39;;;;;;;0.90;0.40;;;;;;;7.99;44.79;102836.63;6212331;23;20386;-87
2024/01/28 09:02:05;;;;;;;0.10;0.10;;;;;;;8.13;44.95;102841.00;6211741;23;20849;-88
2024/01/28 09:04:31;;;;;;;0.40;0.40;;;;;;;8.30;44.40;102837.25;6212285;23;20485;-89
2024/01/28 09:06:57;;;;;;;0.10;0.10;;;;;;;7.82;44.99;102843.03;6213023;23;20367;-88
2024/01/28 09:09:22;;;;;;;0.25;0.22;;;;;;;7.97;45.07;102844.66;6215293;23;20370;-89
2024/01/28 09:11:48;;;;;;;0.20;0.20;;;;;;;8.07;44.07;102839.63;6216487;23;20355;-88
2024/01/28 09:14:14;;;;;;;1.40;0.40;;;;;;;7.79;44.82;102841.41;6218982;23;20359;-88
2024/01/28 09:16:40;;;;;;;0.30;0.30;;;;;;;7.99;44.54;102837.47;6228365;23;20351;-89
2024/01/28 09:19:09;;;;;;;0.30;0.30;;;;;;;8.33;43.79;102840.53;6203382;23;20355;-89
2024/01/28 09:21:35;;;;;;;0.60;0.60;;;;;;;8.47;43.88;102838.78;6166776;23;20830;-90
2024/01/28 09:24:04;;;;;;;0.60;0.47;;;;;;;8.37;42.85;102835.88;6188231;23;20461;-89
2024/01/28 09:26:31;;;;;;;1.10;1.02;;;;;;;8.32;43.20;102833.56;6188006;23;20402;-88
2024/01/28 09:28:57;;;;;;;0.30;0.20;;;;;;;8.43;42.82;102843.44;6186842;23;20382;-90
2024/01/28 09:31:23;;;;;;;0.45;0.45;;;;;;;8.65;42.72;102832.25;6186081;23;20367;-88
2024/01/28 09:33:48;;;;;;;0.20;0.20;;;;;;;8.66;42.61;102831.31;6213817;23;20389;-88
2024/01/28 09:36:14;;;;;;;0.60;0.40;;;;;;;8.55;42.30;102831.19;6189888;23;20394;-91
2024/01/28 09:38:40;;;;;;;0.30;0.30;;;;;;;8.10;42.82;102831.47;6189872;23;20355;-89
2024/01/28 09:41:20;;;;;;;0.30;0.30;;;;;;;8.43;43.12;102838.16;6190272;23;20401;-87
2024/01/28 09:43:46;;;;;;;0.52;0.45;;;;;;;8.50;43.23;102828.88;6215928;23;20354;-88
2024/01/28 09:46:13;;;;;;;0.20;0.20;;;;;;;8.85;42.56;102832.69;6190109;23;20370;-90
2024/01/28 09:48:39;;;;;;;0.30;0.30;;;;;;;9.10;42.07;102829.16;6199603;23;20453;-90
2024/01/28 09:51:09;;;;;;;0.17;0.17;;;;;;;9.08;42.10;102829.25;6216345;22;20398;-92
2024/01/28 09:53:35;;;;;;;0.30;0.30;;;;;;;9.11;41.87;102836.13;6208496;23;20450;-91
2024/01/28 09:56:01;;;;;;;0.20;0.20;;;;;;;9.27;41.97;102830.59;6199794;23;20367;-91
2024/01/28 09:58:28;;;;;;;0.20;0.20;;;;;;;9.14;41.04;102826.19;6223382;23;20358;-91
2024/01/28 10:00:58;;;;;;;0.22;0.22;;;;;;;9.18;41.71;102827.69;6182906;23;20359;-95
2024/01/28 10:03:23;;;;;;;1.40;0.60;;;;;;;9.24;40.64;102838.75;6205965;22;20385;-92
2024/01/28 10:05:49;;;;;;;0.20;0.20;;;;;;;8.95;40.18;102812.56;6205230;23;20350;-94
2024/01/28 10:08:15;;;;;;;0.10;0.10;;;;;;;9.22;39.30;102815.06;6212766;23;20386;-88
2024/01/28 10:10:41;;;;;;;0.10;0.10;;;;;;;9.38;39.74;102813.00;6213842;23;20370;-88
2024/01/28 10:13:07;;;;;;;0.40;0.40;;;;;;;9.34;39.31;102806.22;6210583;23;20376;-91
2024/01/28 10:15:34;;;;;;;0.50;0.30;;;;;;;9.19;40.15;102824.06;6202035;23;20363;-92
2024/01/28 10:18:02;;;;;;;0.40;0.40;;;;;;;9.47;40.03;102814.16;6211135;23;20367;-90
2024/01/28 10:20:30;;;;;;;0.17;0.17;;;;;;;9.74;39.46;102807.78;6216942;23;20355;-88
2024/01/28 10:22:56;;;;;;;0.10;0.10;;;;;;;9.87;38.52;102821.00;6215778;23;20445;-89
2024/01/28 10:25:22;;;;;;;0.28;0.28;;;;;;;9.52;38.67;102805.84;6217510;23;20757;-89
2024/01/28 10:27:51;;;;;;;0.17;0.17;;;;;;;9.77;38.69;102826.09;6217659;23;20366;-89
2024/01/28 10:30:19;;;;;;;1.17;1.08;;;;;;;9.80;38.42;102820.59;6224162;23;20350;-90
2024/01/28 10:32:44;;;;;;;0.20;0.20;;;;;;;9.45;38.97;102821.34;6218822;23;20351;-90
2024/01/28 10:35:20;;;;;;;0.47;0.47;;;;;;;9.67;39.00;102828.59;6217022;23;20355;-89
2024/01/28 10:37:52;;;;;;;0.30;0.30;;;;;;;9.88;39.08;102817.38;6214821;23;20413;-91
2024/01/28 10:40:19;;;;;;;0.90;0.90;;;;;;;9.94;38.16;102823.06;6216830;23;20900;-88
2024/01/28 10:42:49;;;;;;;0.20;0.20;;;;;;;9.63;38.58;102832.41;6218199;23;20415;-90
2024/01/28 10:45:19;;;;;;;0.30;0.30;;;;;;;9.75;38.73;102820.06;6220225;23;20351;-92
2024/01/28 10:47:51;;;;;;;0.40;0.40;;;;;;;9.78;38.43;102809.25;6193156;23;20397;-89
2024/01/28 10:50:24;;;;;;;0.20;0.20;;;;;;;9.85;38.41;102820.22;6217459;23;20374;-88
2024/01/28 10:52:51;;;;;;;0.50;0.30;;;;;;;10.01;38.41;102826.09;6216238;23;20706;-91
2024/01/28 10:55:20;;;;;;;0.47;0.47;;;;;;;9.95;37.74;102819.44;6217462;23;20355;-93
2024/01/28 10:57:47;;;;;;;0.75;0.45;;;;;;;9.96;37.77;102809.72;6197039;23;20382;-90
2024/01/28 11:00:16;;;;;;;0.10;0.10;;;;;;;9.95;37.57;102808.00;6217415;23;20818;-91
2024/01/28 11:02:42;;;;;;;0.13;0.13;;;;;;;10.07;37.25;102803.59;6217847;23;20359;-90
2024/01/28 11:05:13;;;;;;;0.30;0.30;;;;;;;10.07;37.74;102800.94;6218232;23;20366;-89
2024/01/28 11:07:38;;;;;;;0.10;0.10;;;;;;;10.17;37.47;102803.75;6215080;23;20378;-89
2024/01/28 11:10:09;;;;;;;0.30;0.30;;;;;;;10.00;37.83;102805.03;6214730;23;20363;-89
2024/01/28 11:12:40;;;;;;;0.10;0.10;;;;;;;10.32;37.26;102800.81;6215038;23;20351;-89
2024/01/28 11:15:13;;;;;;;0.20;0.20;;;;;;;10.44;37.74;102804.34;6214648;23;20355;-89
2024/01/28 11:17:39;;;;;;;0.60;0.52;;;;;;;10.16;38.29;102799.41;6210770;23;20382;-89
2024/01/28 11:20:12;;;;;;;0.30;0.30;;;;;;;10.08;38.90;102803.50;6212960;23;20431;-88
2024/01/28 11:22:59;;;;;;;0.70;0.70;;;;;;;10.27;38.80;102813.53;6213350;23;20722;-89
2024/01/28 11:25:31;;;;;;;0.63;0.63;;;;;;;10.33;38.51;102799.88;6213833;23;20908;-90
2024/01/28 11:28:07;;;;;;;0.70;0.70;;;;;;;10.31;38.81;102809.72;6212530;23;20920;-90
2024/01/28 11:30:38;;;;;;;0.20;0.20;;;;;;;9.95;38.98;102808.84;6213513;23;20367;-88
2024/01/28 11:33:12;;;;;;;0.65;0.57;;;;;;;9.87;39.54;102815.69;6214129;23;20390;-88
2024/01/28 11:35:43;;;;;;;0.50;0.40;;;;;;;9.72;39.28;102807.91;6215380;23;20387;-89